sensor_id;sensor_type;location;lat;lon;timestamp;P1;durP1;ratioP1;P2;durP2;ratioP2
1785;SDS011;890;48.158;11.540;2022-09-09T00:02:18;2.10;;;1.90;;
1785;SDS011;890;48.158;11.540;2022-09-09T00:04:58;1.87;;;1.53;;
1785;SDS011;890;48.158;11.540;2022-09-09T00:07:47;2.67;;;2.00;;
1785;SDS011;890;48.158;11.540;2022-09-09T00:21:13;3.13;;;2.17;;
1785;SDS011;890;48.158;11.540;2022-09-09T00:23:44;2.10;;;1.90;;
1785;SDS011;890;48.158;11.540;2022-09-09T00:28:56;2.00;;;1.80;;
1785;SDS011;890;48.158;11.540;2022-09-09T00:31:30;2.33;;;1.93;;
1785;SDS011;890;48.158;11.540;2022-09-09T00:33:59;1.97;;;1.80;;
1785;SDS011;890;48.158;11.540;2022-09-09T00:36:36;1.93;;;1.70;;
1785;SDS011;890;48.158;11.540;2022-09-09T00:39:03;1.90;;;1.80;;
1785;SDS011;890;48.158;11.540;2022-09-09T00:44:31;3.90;;;2.00;;
1785;SDS011;890;48.158;11.540;2022-09-09T00:57:30;2.47;;;1.80;;
1785;SDS011;890;48.158;11.540;2022-09-09T01:00:00;2.17;;;1.90;;
1785;SDS011;890;48.158;11.540;2022-09-09T01:07:57;2.33;;;1.73;;
1785;SDS011;890;48.158;11.540;2022-09-09T01:13:25;2.13;;;1.43;;
1785;SDS011;890;48.158;11.540;2022-09-09T01:15:55;1.73;;;1.40;;
1785;SDS011;890;48.158;11.540;2022-09-09T01:18:26;1.80;;;1.70;;
1785;SDS011;890;48.158;11.540;2022-09-09T01:20:59;3.80;;;1.87;;
1785;SDS011;890;48.158;11.540;2022-09-09T01:26:19;1.87;;;1.70;;
1785;SDS011;890;48.158;11.540;2022-09-09T01:28:59;2.43;;;2.10;;
1785;SDS011;890;48.158;11.540;2022-09-09T01:34:15;3.00;;;1.83;;
1785;SDS011;890;48.158;11.540;2022-09-09T01:39:26;2.13;;;1.90;;
1785;SDS011;890;48.158;11.540;2022-09-09T01:41:52;3.20;;;2.03;;
1785;SDS011;890;48.158;11.540;2022-09-09T01:44:18;2.20;;;2.00;;
1785;SDS011;890;48.158;11.540;2022-09-09T01:46:44;2.10;;;1.90;;
1785;SDS011;890;48.158;11.540;2022-09-09T01:49:10;2.30;;;1.90;;
1785;SDS011;890;48.158;11.540;2022-09-09T01:51:36;1.77;;;1.50;;
1785;SDS011;890;48.158;11.540;2022-09-09T01:54:04;2.20;;;2.03;;
1785;SDS011;890;48.158;11.540;2022-09-09T01:56:40;2.40;;;2.20;;
1785;SDS011;890;48.158;11.540;2022-09-09T01:59:38;5.00;;;2.23;;
1785;SDS011;890;48.158;11.540;2022-09-09T02:02:22;4.40;;;2.47;;
1785;SDS011;890;48.158;11.540;2022-09-09T02:07:41;2.30;;;2.10;;
1785;SDS011;890;48.158;11.540;2022-09-09T02:10:15;2.77;;;2.40;;
1785;SDS011;890;48.158;11.540;2022-09-09T02:12:47;3.87;;;2.50;;
1785;SDS011;890;48.158;11.540;2022-09-09T02:15:21;5.07;;;2.20;;
1785;SDS011;890;48.158;11.540;2022-09-09T02:17:51;2.57;;;2.37;;
1785;SDS011;890;48.158;11.540;2022-09-09T02:20:18;2.00;;;1.80;;
1785;SDS011;890;48.158;11.540;2022-09-09T02:22:45;5.47;;;2.63;;
1785;SDS011;890;48.158;11.540;2022-09-09T02:25:14;2.20;;;2.00;;
1785;SDS011;890;48.158;11.540;2022-09-09T02:27:44;2.40;;;2.20;;
1785;SDS011;890;48.158;11.540;2022-09-09T02:30:12;2.83;;;2.40;;
1785;SDS011;890;48.158;11.540;2022-09-09T02:32:39;3.63;;;2.20;;
1785;SDS011;890;48.158;11.540;2022-09-09T02:35:09;2.30;;;2.10;;
1785;SDS011;890;48.158;11.540;2022-09-09T02:37:40;2.30;;;2.10;;
1785;SDS011;890;48.158;11.540;2022-09-09T02:40:08;3.13;;;2.10;;
1785;SDS011;890;48.158;11.540;2022-09-09T02:42:43;2.20;;;2.00;;
1785;SDS011;890;48.158;11.540;2022-09-09T02:45:11;2.50;;;2.30;;
1785;SDS011;890;48.158;11.540;2022-09-09T02:51:07;2.53;;;2.33;;
1785;SDS011;890;48.158;11.540;2022-09-09T02:53:45;3.70;;;2.70;;
1785;SDS011;890;48.158;11.540;2022-09-09T02:56:21;3.97;;;2.20;;
1785;SDS011;890;48.158;11.540;2022-09-09T02:58:50;2.50;;;2.23;;
1785;SDS011;890;48.158;11.540;2022-09-09T03:01:16;2.97;;;2.10;;
1785;SDS011;890;48.158;11.540;2022-09-09T03:03:42;2.77;;;2.37;;
1785;SDS011;890;48.158;11.540;2022-09-09T03:06:09;2.47;;;2.07;;
1785;SDS011;890;48.158;11.540;2022-09-09T03:08:36;5.30;;;2.00;;
1785;SDS011;890;48.158;11.540;2022-09-09T03:11:02;2.40;;;2.20;;
1785;SDS011;890;48.158;11.540;2022-09-09T03:13:28;2.60;;;2.00;;
1785;SDS011;890;48.158;11.540;2022-09-09T03:15:54;2.83;;;2.10;;
1785;SDS011;890;48.158;11.540;2022-09-09T03:18:19;5.27;;;2.10;;
1785;SDS011;890;48.158;11.540;2022-09-09T03:20:45;4.20;;;1.90;;
1785;SDS011;890;48.158;11.540;2022-09-09T03:23:13;2.30;;;2.10;;
1785;SDS011;890;48.158;11.540;2022-09-09T03:25:39;2.30;;;2.00;;
1785;SDS011;890;48.158;11.540;2022-09-09T03:28:11;2.17;;;1.53;;
1785;SDS011;890;48.158;11.540;2022-09-09T03:30:36;1.83;;;1.73;;
1785;SDS011;890;48.158;11.540;2022-09-09T03:33:02;2.70;;;1.83;;
1785;SDS011;890;48.158;11.540;2022-09-09T03:35:28;2.00;;;1.80;;
1785;SDS011;890;48.158;11.540;2022-09-09T03:37:54;3.40;;;1.70;;
1785;SDS011;890;48.158;11.540;2022-09-09T03:40:20;2.07;;;1.87;;
1785;SDS011;890;48.158;11.540;2022-09-09T03:42:46;1.87;;;1.77;;
1785;SDS011;890;48.158;11.540;2022-09-09T03:45:13;2.40;;;2.10;;
1785;SDS011;890;48.158;11.540;2022-09-09T03:47:38;2.20;;;1.83;;
1785;SDS011;890;48.158;11.540;2022-09-09T03:50:05;1.90;;;1.80;;
1785;SDS011;890;48.158;11.540;2022-09-09T03:52:37;2.50;;;1.80;;
1785;SDS011;890;48.158;11.540;2022-09-09T03:55:04;1.97;;;1.70;;
1785;SDS011;890;48.158;11.540;2022-09-09T03:57:30;3.10;;;1.80;;
1785;SDS011;890;48.158;11.540;2022-09-09T03:59:56;2.67;;;1.77;;
1785;SDS011;890;48.158;11.540;2022-09-09T04:02:23;2.20;;;2.00;;
1785;SDS011;890;48.158;11.540;2022-09-09T04:04:48;1.80;;;1.70;;
1785;SDS011;890;48.158;11.540;2022-09-09T04:07:14;2.60;;;1.90;;
1785;SDS011;890;48.158;11.540;2022-09-09T04:09:40;2.90;;;1.97;;
1785;SDS011;890;48.158;11.540;2022-09-09T04:12:06;3.57;;;2.37;;
1785;SDS011;890;48.158;11.540;2022-09-09T04:14:32;3.83;;;2.40;;
1785;SDS011;890;48.158;11.540;2022-09-09T04:16:57;2.17;;;1.60;;
1785;SDS011;890;48.158;11.540;2022-09-09T04:19:24;2.63;;;2.13;;
1785;SDS011;890;48.158;11.540;2022-09-09T04:21:50;4.80;;;2.40;;
1785;SDS011;890;48.158;11.540;2022-09-09T04:24:16;2.00;;;1.83;;
1785;SDS011;890;48.158;11.540;2022-09-09T04:26:42;2.50;;;1.87;;
1785;SDS011;890;48.158;11.540;2022-09-09T04:29:08;3.57;;;2.00;;
1785;SDS011;890;48.158;11.540;2022-09-09T04:31:34;2.90;;;2.20;;
1785;SDS011;890;48.158;11.540;2022-09-09T04:33:59;2.83;;;1.80;;
1785;SDS011;890;48.158;11.540;2022-09-09T04:36:30;2.30;;;2.07;;
1785;SDS011;890;48.158;11.540;2022-09-09T04:38:57;2.30;;;1.97;;
1785;SDS011;890;48.158;11.540;2022-09-09T04:41:22;2.30;;;2.00;;
1785;SDS011;890;48.158;11.540;2022-09-09T04:43:48;2.20;;;2.00;;
1785;SDS011;890;48.158;11.540;2022-09-09T04:46:14;3.00;;;2.10;;
1785;SDS011;890;48.158;11.540;2022-09-09T04:48:42;2.57;;;2.20;;
1785;SDS011;890;48.158;11.540;2022-09-09T04:51:09;2.50;;;2.20;;
1785;SDS011;890;48.158;11.540;2022-09-09T04:53:38;2.50;;;2.30;;
1785;SDS011;890;48.158;11.540;2022-09-09T04:56:09;2.00;;;1.90;;
1785;SDS011;890;48.158;11.540;2022-09-09T04:58:37;2.13;;;1.93;;
1785;SDS011;890;48.158;11.540;2022-09-09T05:01:05;2.43;;;2.00;;
1785;SDS011;890;48.158;11.540;2022-09-09T05:03:35;2.63;;;2.30;;
1785;SDS011;890;48.158;11.540;2022-09-09T05:06:08;2.40;;;2.10;;
1785;SDS011;890;48.158;11.540;2022-09-09T05:08:36;3.07;;;2.33;;
1785;SDS011;890;48.158;11.540;2022-09-09T05:11:04;2.70;;;2.00;;
1785;SDS011;890;48.158;11.540;2022-09-09T05:13:38;2.63;;;2.00;;
1785;SDS011;890;48.158;11.540;2022-09-09T05:16:04;3.43;;;3.13;;
1785;SDS011;890;48.158;11.540;2022-09-09T05:18:29;3.63;;;2.77;;
1785;SDS011;890;48.158;11.540;2022-09-09T05:20:58;4.23;;;2.77;;
1785;SDS011;890;48.158;11.540;2022-09-09T05:23:25;2.90;;;2.33;;
1785;SDS011;890;48.158;11.540;2022-09-09T05:25:57;5.03;;;2.53;;
1785;SDS011;890;48.158;11.540;2022-09-09T05:28:23;3.40;;;2.73;;
1785;SDS011;890;48.158;11.540;2022-09-09T05:31:05;10.27;;;8.53;;
1785;SDS011;890;48.158;11.540;2022-09-09T05:33:33;3.27;;;2.97;;
1785;SDS011;890;48.158;11.540;2022-09-09T05:36:06;12.70;;;9.23;;
1785;SDS011;890;48.158;11.540;2022-09-09T05:38:34;10.60;;;8.70;;
1785;SDS011;890;48.158;11.540;2022-09-09T05:41:00;5.20;;;4.30;;
1785;SDS011;890;48.158;11.540;2022-09-09T05:43:28;3.50;;;2.80;;
1785;SDS011;890;48.158;11.540;2022-09-09T05:48:31;2.50;;;2.03;;
1785;SDS011;890;48.158;11.540;2022-09-09T05:50:58;6.07;;;5.17;;
1785;SDS011;890;48.158;11.540;2022-09-09T05:53:24;3.73;;;2.57;;
1785;SDS011;890;48.158;11.540;2022-09-09T05:55:57;6.77;;;2.93;;
1785;SDS011;890;48.158;11.540;2022-09-09T05:58:28;2.87;;;2.20;;
1785;SDS011;890;48.158;11.540;2022-09-09T06:01:01;4.67;;;3.00;;
1785;SDS011;890;48.158;11.540;2022-09-09T06:03:31;2.37;;;2.17;;
1785;SDS011;890;48.158;11.540;2022-09-09T06:06:03;2.67;;;2.43;;
1785;SDS011;890;48.158;11.540;2022-09-09T06:08:31;4.20;;;2.33;;
1785;SDS011;890;48.158;11.540;2022-09-09T06:11:01;2.53;;;2.30;;
1785;SDS011;890;48.158;11.540;2022-09-09T06:13:28;2.37;;;2.17;;
1785;SDS011;890;48.158;11.540;2022-09-09T06:15:55;4.23;;;2.30;;
1785;SDS011;890;48.158;11.540;2022-09-09T06:21:23;3.13;;;2.13;;
1785;SDS011;890;48.158;11.540;2022-09-09T06:23:50;2.73;;;1.93;;
1785;SDS011;890;48.158;11.540;2022-09-09T06:26:22;2.00;;;1.70;;
1785;SDS011;890;48.158;11.540;2022-09-09T06:28:51;2.90;;;2.00;;
1785;SDS011;890;48.158;11.540;2022-09-09T06:31:18;3.30;;;2.00;;
1785;SDS011;890;48.158;11.540;2022-09-09T06:33:51;2.13;;;1.90;;
1785;SDS011;890;48.158;11.540;2022-09-09T06:36:22;2.30;;;1.60;;
1785;SDS011;890;48.158;11.540;2022-09-09T06:38:48;5.23;;;1.80;;
1785;SDS011;890;48.158;11.540;2022-09-09T06:41:15;2.13;;;1.93;;
1785;SDS011;890;48.158;11.540;2022-09-09T06:43:44;7.60;;;2.27;;
1785;SDS011;890;48.158;11.540;2022-09-09T06:46:14;4.07;;;1.77;;
1785;SDS011;890;48.158;11.540;2022-09-09T06:48:42;4.13;;;1.93;;
1785;SDS011;890;48.158;11.540;2022-09-09T06:51:10;2.17;;;1.97;;
1785;SDS011;890;48.158;11.540;2022-09-09T06:53:38;2.13;;;1.80;;
1785;SDS011;890;48.158;11.540;2022-09-09T06:56:47;2.03;;;1.83;;
1785;SDS011;890;48.158;11.540;2022-09-09T06:58:56;3.20;;;2.03;;
1785;SDS011;890;48.158;11.540;2022-09-09T07:01:24;4.70;;;2.10;;
1785;SDS011;890;48.158;11.540;2022-09-09T07:03:52;3.50;;;1.70;;
1785;SDS011;890;48.158;11.540;2022-09-09T07:08:53;2.13;;;1.53;;
1785;SDS011;890;48.158;11.540;2022-09-09T07:11:22;2.60;;;1.80;;
1785;SDS011;890;48.158;11.540;2022-09-09T07:13:50;4.63;;;1.90;;
1785;SDS011;890;48.158;11.540;2022-09-09T07:16:18;2.67;;;1.60;;
1785;SDS011;890;48.158;11.540;2022-09-09T07:18:45;2.23;;;1.83;;
1785;SDS011;890;48.158;11.540;2022-09-09T07:21:12;3.00;;;1.53;;
1785;SDS011;890;48.158;11.540;2022-09-09T07:27:00;2.70;;;1.57;;
1785;SDS011;890;48.158;11.540;2022-09-09T07:29:27;2.77;;;1.70;;
1785;SDS011;890;48.158;11.540;2022-09-09T07:31:54;1.83;;;1.70;;
1785;SDS011;890;48.158;11.540;2022-09-09T07:34:19;6.00;;;1.80;;
1785;SDS011;890;48.158;11.540;2022-09-09T07:36:46;2.00;;;1.70;;
1785;SDS011;890;48.158;11.540;2022-09-09T07:39:12;3.00;;;1.50;;
1785;SDS011;890;48.158;11.540;2022-09-09T07:41:40;2.00;;;1.73;;
1785;SDS011;890;48.158;11.540;2022-09-09T07:44:12;2.80;;;2.07;;
1785;SDS011;890;48.158;11.540;2022-09-09T07:46:39;1.90;;;1.40;;
1785;SDS011;890;48.158;11.540;2022-09-09T07:49:05;2.10;;;1.67;;
1785;SDS011;890;48.158;11.540;2022-09-09T07:51:32;3.20;;;1.63;;
1785;SDS011;890;48.158;11.540;2022-09-09T07:54:01;1.70;;;1.60;;
1785;SDS011;890;48.158;11.540;2022-09-09T07:56:32;1.77;;;1.47;;
1785;SDS011;890;48.158;11.540;2022-09-09T07:58:58;2.47;;;1.57;;
1785;SDS011;890;48.158;11.540;2022-09-09T08:01:25;1.93;;;1.67;;
1785;SDS011;890;48.158;11.540;2022-09-09T08:04:01;1.63;;;1.53;;
1785;SDS011;890;48.158;11.540;2022-09-09T08:06:29;2.00;;;1.60;;
1785;SDS011;890;48.158;11.540;2022-09-09T08:08:58;3.63;;;1.53;;
1785;SDS011;890;48.158;11.540;2022-09-09T08:11:24;3.00;;;1.40;;
1785;SDS011;890;48.158;11.540;2022-09-09T08:13:52;2.07;;;1.80;;
1785;SDS011;890;48.158;11.540;2022-09-09T08:16:19;2.90;;;1.43;;
1785;SDS011;890;48.158;11.540;2022-09-09T08:18:50;1.90;;;1.60;;
1785;SDS011;890;48.158;11.540;2022-09-09T08:21:18;2.03;;;1.30;;
1785;SDS011;890;48.158;11.540;2022-09-09T08:23:50;2.63;;;1.90;;
1785;SDS011;890;48.158;11.540;2022-09-09T08:26:21;1.77;;;1.60;;
1785;SDS011;890;48.158;11.540;2022-09-09T08:28:51;2.03;;;1.83;;
1785;SDS011;890;48.158;11.540;2022-09-09T08:31:23;2.23;;;1.50;;
1785;SDS011;890;48.158;11.540;2022-09-09T08:33:50;2.00;;;1.80;;
1785;SDS011;890;48.158;11.540;2022-09-09T08:36:17;4.07;;;2.07;;
1785;SDS011;890;48.158;11.540;2022-09-09T08:38:46;2.50;;;1.97;;
1785;SDS011;890;48.158;11.540;2022-09-09T08:43:51;2.17;;;1.97;;
1785;SDS011;890;48.158;11.540;2022-09-09T08:49:06;3.67;;;2.03;;
1785;SDS011;890;48.158;11.540;2022-09-09T08:52:00;4.00;;;2.43;;
1785;SDS011;890;48.158;11.540;2022-09-09T08:54:28;2.40;;;2.20;;
1785;SDS011;890;48.158;11.540;2022-09-09T08:56:58;3.50;;;2.60;;
1785;SDS011;890;48.158;11.540;2022-09-09T08:59:24;4.07;;;2.97;;
1785;SDS011;890;48.158;11.540;2022-09-09T09:09:36;4.97;;;3.17;;
1785;SDS011;890;48.158;11.540;2022-09-09T09:12:24;3.10;;;2.73;;
1785;SDS011;890;48.158;11.540;2022-09-09T09:14:54;3.03;;;2.73;;
1785;SDS011;890;48.158;11.540;2022-09-09T09:17:24;6.50;;;2.60;;
1785;SDS011;890;48.158;11.540;2022-09-09T09:19:52;7.53;;;2.97;;
1785;SDS011;890;48.158;11.540;2022-09-09T09:25:16;2.60;;;2.40;;
1785;SDS011;890;48.158;11.540;2022-09-09T09:33:51;3.23;;;1.90;;
1785;SDS011;890;48.158;11.540;2022-09-09T09:36:24;2.40;;;2.07;;
1785;SDS011;890;48.158;11.540;2022-09-09T09:39:00;1.83;;;1.70;;
1785;SDS011;890;48.158;11.540;2022-09-09T09:41:32;2.47;;;1.47;;
1785;SDS011;890;48.158;11.540;2022-09-09T09:44:00;2.37;;;1.60;;
1785;SDS011;890;48.158;11.540;2022-09-09T09:46:27;3.10;;;2.53;;
1785;SDS011;890;48.158;11.540;2022-09-09T09:49:05;3.30;;;2.07;;
1785;SDS011;890;48.158;11.540;2022-09-09T09:51:35;2.77;;;2.30;;
1785;SDS011;890;48.158;11.540;2022-09-09T09:56:43;5.07;;;1.63;;
1785;SDS011;890;48.158;11.540;2022-09-09T10:04:39;3.00;;;2.10;;
1785;SDS011;890;48.158;11.540;2022-09-09T10:07:39;3.00;;;1.80;;
1785;SDS011;890;48.158;11.540;2022-09-09T10:09:59;2.47;;;2.20;;
1785;SDS011;890;48.158;11.540;2022-09-09T10:15:48;4.97;;;2.10;;
1785;SDS011;890;48.158;11.540;2022-09-09T10:29:38;2.87;;;2.10;;
1785;SDS011;890;48.158;11.540;2022-09-09T10:40:33;3.50;;;1.60;;
1785;SDS011;890;48.158;11.540;2022-09-09T10:43:07;2.53;;;2.33;;
1785;SDS011;890;48.158;11.540;2022-09-09T10:45:56;3.60;;;2.20;;
1785;SDS011;890;48.158;11.540;2022-09-09T10:48:47;2.40;;;1.83;;
1785;SDS011;890;48.158;11.540;2022-09-09T10:51:23;2.03;;;1.80;;
1785;SDS011;890;48.158;11.540;2022-09-09T10:57:00;2.07;;;1.50;;
1785;SDS011;890;48.158;11.540;2022-09-09T10:59:51;1.40;;;1.30;;
1785;SDS011;890;48.158;11.540;2022-09-09T11:04:53;1.60;;;1.40;;
1785;SDS011;890;48.158;11.540;2022-09-09T11:07:35;1.50;;;1.40;;
1785;SDS011;890;48.158;11.540;2022-09-09T11:10:32;2.30;;;1.60;;
1785;SDS011;890;48.158;11.540;2022-09-09T11:12:59;2.70;;;1.33;;
1785;SDS011;890;48.158;11.540;2022-09-09T11:15:40;3.27;;;1.60;;
1785;SDS011;890;48.158;11.540;2022-09-09T11:18:12;1.53;;;1.33;;
1785;SDS011;890;48.158;11.540;2022-09-09T11:20:43;1.90;;;1.60;;
1785;SDS011;890;48.158;11.540;2022-09-09T11:23:15;1.30;;;1.20;;
1785;SDS011;890;48.158;11.540;2022-09-09T11:25:48;1.67;;;1.37;;
1785;SDS011;890;48.158;11.540;2022-09-09T11:34:02;1.90;;;1.23;;
1785;SDS011;890;48.158;11.540;2022-09-09T11:36:45;1.43;;;1.33;;
1785;SDS011;890;48.158;11.540;2022-09-09T11:42:05;1.47;;;1.37;;
1785;SDS011;890;48.158;11.540;2022-09-09T11:44:51;2.30;;;1.53;;
1785;SDS011;890;48.158;11.540;2022-09-09T11:47:24;1.17;;;1.07;;
1785;SDS011;890;48.158;11.540;2022-09-09T11:49:55;1.40;;;1.27;;
1785;SDS011;890;48.158;11.540;2022-09-09T11:55:27;1.40;;;1.30;;
1785;SDS011;890;48.158;11.540;2022-09-09T11:58:05;1.30;;;1.20;;
1785;SDS011;890;48.158;11.540;2022-09-09T12:00:42;2.53;;;1.27;;
1785;SDS011;890;48.158;11.540;2022-09-09T12:06:09;2.10;;;1.40;;
1785;SDS011;890;48.158;11.540;2022-09-09T12:08:36;1.37;;;1.10;;
1785;SDS011;890;48.158;11.540;2022-09-09T12:11:05;2.83;;;2.33;;
1785;SDS011;890;48.158;11.540;2022-09-09T12:13:31;1.87;;;1.77;;
1785;SDS011;890;48.158;11.540;2022-09-09T12:15:58;1.40;;;1.20;;
1785;SDS011;890;48.158;11.540;2022-09-09T12:18:31;1.50;;;1.40;;
1785;SDS011;890;48.158;11.540;2022-09-09T12:34:11;1.60;;;1.30;;
1785;SDS011;890;48.158;11.540;2022-09-09T12:36:41;3.80;;;2.37;;
1785;SDS011;890;48.158;11.540;2022-09-09T12:39:10;1.50;;;1.30;;
1785;SDS011;890;48.158;11.540;2022-09-09T12:41:51;2.40;;;1.50;;
1785;SDS011;890;48.158;11.540;2022-09-09T12:44:22;1.83;;;1.60;;
1785;SDS011;890;48.158;11.540;2022-09-09T12:46:53;2.90;;;2.03;;
1785;SDS011;890;48.158;11.540;2022-09-09T12:49:39;1.80;;;1.33;;
1785;SDS011;890;48.158;11.540;2022-09-09T12:54:43;2.47;;;1.70;;
1785;SDS011;890;48.158;11.540;2022-09-09T12:57:12;2.53;;;1.47;;
1785;SDS011;890;48.158;11.540;2022-09-09T12:59:41;1.37;;;1.27;;
1785;SDS011;890;48.158;11.540;2022-09-09T13:02:25;2.30;;;1.20;;
1785;SDS011;890;48.158;11.540;2022-09-09T13:04:53;1.37;;;1.27;;
1785;SDS011;890;48.158;11.540;2022-09-09T13:07:19;1.90;;;1.17;;
1785;SDS011;890;48.158;11.540;2022-09-09T13:09:47;1.43;;;1.30;;
1785;SDS011;890;48.158;11.540;2022-09-09T13:12:18;2.50;;;1.30;;
1785;SDS011;890;48.158;11.540;2022-09-09T13:14:47;1.50;;;1.10;;
1785;SDS011;890;48.158;11.540;2022-09-09T13:17:22;2.20;;;2.00;;
1785;SDS011;890;48.158;11.540;2022-09-09T13:19:49;3.23;;;2.50;;
1785;SDS011;890;48.158;11.540;2022-09-09T13:22:29;2.00;;;1.43;;
1785;SDS011;890;48.158;11.540;2022-09-09T13:24:58;1.83;;;1.50;;
1785;SDS011;890;48.158;11.540;2022-09-09T13:28:03;1.90;;;1.30;;
1785;SDS011;890;48.158;11.540;2022-09-09T13:30:31;2.27;;;1.70;;
1785;SDS011;890;48.158;11.540;2022-09-09T13:33:02;4.50;;;3.10;;
1785;SDS011;890;48.158;11.540;2022-09-09T13:35:29;2.80;;;1.50;;
1785;SDS011;890;48.158;11.540;2022-09-09T13:37:55;1.60;;;1.30;;
1785;SDS011;890;48.158;11.540;2022-09-09T13:40:22;1.87;;;1.40;;
1785;SDS011;890;48.158;11.540;2022-09-09T13:42:51;0.90;;;0.90;;
1785;SDS011;890;48.158;11.540;2022-09-09T13:45:23;2.20;;;1.10;;
1785;SDS011;890;48.158;11.540;2022-09-09T13:47:54;1.47;;;1.23;;
1785;SDS011;890;48.158;11.540;2022-09-09T13:52:58;1.73;;;1.30;;
1785;SDS011;890;48.158;11.540;2022-09-09T13:55:29;1.30;;;1.20;;
1785;SDS011;890;48.158;11.540;2022-09-09T13:57:59;2.63;;;1.20;;
1785;SDS011;890;48.158;11.540;2022-09-09T14:00:26;2.10;;;1.27;;
1785;SDS011;890;48.158;11.540;2022-09-09T14:02:54;1.40;;;1.30;;
1785;SDS011;890;48.158;11.540;2022-09-09T14:05:22;1.70;;;1.40;;
1785;SDS011;890;48.158;11.540;2022-09-09T14:07:48;3.93;;;1.60;;
1785;SDS011;890;48.158;11.540;2022-09-09T14:10:15;1.93;;;1.20;;
1785;SDS011;890;48.158;11.540;2022-09-09T14:12:40;1.50;;;1.40;;
1785;SDS011;890;48.158;11.540;2022-09-09T14:15:06;2.03;;;1.37;;
1785;SDS011;890;48.158;11.540;2022-09-09T14:17:34;1.40;;;1.13;;
1785;SDS011;890;48.158;11.540;2022-09-09T14:20:01;1.30;;;1.20;;
1785;SDS011;890;48.158;11.540;2022-09-09T14:22:28;2.20;;;1.23;;
1785;SDS011;890;48.158;11.540;2022-09-09T14:24:53;1.50;;;1.40;;
1785;SDS011;890;48.158;11.540;2022-09-09T14:27:19;1.93;;;1.40;;
1785;SDS011;890;48.158;11.540;2022-09-09T14:29:44;2.77;;;1.33;;
1785;SDS011;890;48.158;11.540;2022-09-09T14:32:10;1.97;;;1.50;;
1785;SDS011;890;48.158;11.540;2022-09-09T14:34:36;2.83;;;1.77;;
1785;SDS011;890;48.158;11.540;2022-09-09T14:37:03;2.43;;;1.40;;
1785;SDS011;890;48.158;11.540;2022-09-09T14:39:29;4.10;;;1.40;;
1785;SDS011;890;48.158;11.540;2022-09-09T14:41:55;2.30;;;1.20;;
1785;SDS011;890;48.158;11.540;2022-09-09T14:44:21;1.60;;;1.40;;
1785;SDS011;890;48.158;11.540;2022-09-09T14:46:47;1.23;;;0.80;;
1785;SDS011;890;48.158;11.540;2022-09-09T14:49:15;1.47;;;1.30;;
1785;SDS011;890;48.158;11.540;2022-09-09T14:51:41;3.33;;;1.80;;
1785;SDS011;890;48.158;11.540;2022-09-09T14:54:06;1.50;;;1.17;;
1785;SDS011;890;48.158;11.540;2022-09-09T14:56:32;2.10;;;1.23;;
1785;SDS011;890;48.158;11.540;2022-09-09T14:59:01;2.90;;;1.60;;
1785;SDS011;890;48.158;11.540;2022-09-09T15:01:27;1.97;;;1.00;;
1785;SDS011;890;48.158;11.540;2022-09-09T15:03:55;5.10;;;2.40;;
1785;SDS011;890;48.158;11.540;2022-09-09T15:06:23;1.37;;;1.10;;
1785;SDS011;890;48.158;11.540;2022-09-09T15:08:51;1.83;;;1.10;;
1785;SDS011;890;48.158;11.540;2022-09-09T15:11:18;2.33;;;1.80;;
1785;SDS011;890;48.158;11.540;2022-09-09T15:13:45;2.87;;;2.60;;
1785;SDS011;890;48.158;11.540;2022-09-09T15:16:14;2.47;;;1.67;;
1785;SDS011;890;48.158;11.540;2022-09-09T15:18:44;2.50;;;1.40;;
1785;SDS011;890;48.158;11.540;2022-09-09T15:21:14;2.20;;;1.20;;
1785;SDS011;890;48.158;11.540;2022-09-09T15:23:42;1.60;;;1.50;;
1785;SDS011;890;48.158;11.540;2022-09-09T15:26:08;3.07;;;2.10;;
1785;SDS011;890;48.158;11.540;2022-09-09T15:28:35;2.63;;;2.13;;
1785;SDS011;890;48.158;11.540;2022-09-09T15:31:04;3.13;;;2.10;;
1785;SDS011;890;48.158;11.540;2022-09-09T15:33:32;1.50;;;1.20;;
1785;SDS011;890;48.158;11.540;2022-09-09T15:35:58;2.50;;;1.20;;
1785;SDS011;890;48.158;11.540;2022-09-09T15:38:24;3.27;;;1.63;;
1785;SDS011;890;48.158;11.540;2022-09-09T15:40:56;2.73;;;1.50;;
1785;SDS011;890;48.158;11.540;2022-09-09T15:43:22;1.33;;;1.23;;
1785;SDS011;890;48.158;11.540;2022-09-09T15:45:49;1.30;;;1.20;;
1785;SDS011;890;48.158;11.540;2022-09-09T15:48:29;1.87;;;1.10;;
1785;SDS011;890;48.158;11.540;2022-09-09T15:51:02;1.37;;;1.27;;
1785;SDS011;890;48.158;11.540;2022-09-09T15:53:29;3.20;;;1.30;;
1785;SDS011;890;48.158;11.540;2022-09-09T15:55:57;1.50;;;1.30;;
1785;SDS011;890;48.158;11.540;2022-09-09T15:58:24;2.17;;;1.30;;
1785;SDS011;890;48.158;11.540;2022-09-09T16:00:49;2.90;;;1.40;;
1785;SDS011;890;48.158;11.540;2022-09-09T16:03:15;1.67;;;1.27;;
1785;SDS011;890;48.158;11.540;2022-09-09T16:05:40;2.23;;;1.50;;
1785;SDS011;890;48.158;11.540;2022-09-09T16:08:06;1.93;;;1.50;;
1785;SDS011;890;48.158;11.540;2022-09-09T16:10:32;1.37;;;1.27;;
1785;SDS011;890;48.158;11.540;2022-09-09T16:12:57;1.80;;;1.60;;
1785;SDS011;890;48.158;11.540;2022-09-09T16:15:23;3.30;;;1.60;;
1785;SDS011;890;48.158;11.540;2022-09-09T16:17:52;2.33;;;1.30;;
1785;SDS011;890;48.158;11.540;2022-09-09T16:20:18;2.13;;;1.30;;
1785;SDS011;890;48.158;11.540;2022-09-09T16:22:45;2.07;;;1.60;;
1785;SDS011;890;48.158;11.540;2022-09-09T16:25:10;1.73;;;1.47;;
1785;SDS011;890;48.158;11.540;2022-09-09T16:27:36;2.23;;;1.37;;
1785;SDS011;890;48.158;11.540;2022-09-09T16:30:02;2.70;;;1.40;;
1785;SDS011;890;48.158;11.540;2022-09-09T16:32:28;2.90;;;1.63;;
1785;SDS011;890;48.158;11.540;2022-09-09T16:34:54;1.60;;;1.50;;
1785;SDS011;890;48.158;11.540;2022-09-09T16:37:20;1.70;;;1.57;;
1785;SDS011;890;48.158;11.540;2022-09-09T16:39:45;4.23;;;1.30;;
1785;SDS011;890;48.158;11.540;2022-09-09T16:42:11;3.20;;;1.47;;
1785;SDS011;890;48.158;11.540;2022-09-09T16:44:37;2.00;;;1.90;;
1785;SDS011;890;48.158;11.540;2022-09-09T16:47:02;4.90;;;2.60;;
1785;SDS011;890;48.158;11.540;2022-09-09T16:49:28;3.33;;;2.47;;
1785;SDS011;890;48.158;11.540;2022-09-09T16:51:53;7.83;;;4.80;;
1785;SDS011;890;48.158;11.540;2022-09-09T16:54:22;8.20;;;5.80;;
1785;SDS011;890;48.158;11.540;2022-09-09T16:56:50;6.10;;;4.67;;
1785;SDS011;890;48.158;11.540;2022-09-09T16:59:16;6.00;;;3.40;;
1785;SDS011;890;48.158;11.540;2022-09-09T17:01:47;7.70;;;5.40;;
1785;SDS011;890;48.158;11.540;2022-09-09T17:04:21;5.90;;;3.53;;
1785;SDS011;890;48.158;11.540;2022-09-09T17:06:51;3.00;;;2.10;;
1785;SDS011;890;48.158;11.540;2022-09-09T17:09:18;3.40;;;2.80;;
1785;SDS011;890;48.158;11.540;2022-09-09T17:11:44;1.50;;;1.40;;
1785;SDS011;890;48.158;11.540;2022-09-09T17:14:13;2.60;;;1.40;;
1785;SDS011;890;48.158;11.540;2022-09-09T17:16:41;2.10;;;1.70;;
1785;SDS011;890;48.158;11.540;2022-09-09T17:19:07;2.83;;;2.00;;
1785;SDS011;890;48.158;11.540;2022-09-09T17:21:33;2.13;;;1.50;;
1785;SDS011;890;48.158;11.540;2022-09-09T17:23:59;2.07;;;1.60;;
1785;SDS011;890;48.158;11.540;2022-09-09T17:26:26;4.00;;;1.43;;
1785;SDS011;890;48.158;11.540;2022-09-09T17:28:54;2.43;;;1.90;;
1785;SDS011;890;48.158;11.540;2022-09-09T17:31:23;3.20;;;1.50;;
1785;SDS011;890;48.158;11.540;2022-09-09T17:33:49;3.00;;;2.07;;
1785;SDS011;890;48.158;11.540;2022-09-09T17:38:53;4.50;;;2.20;;
1785;SDS011;890;48.158;11.540;2022-09-09T17:41:20;2.00;;;1.50;;
1785;SDS011;890;48.158;11.540;2022-09-09T17:43:48;3.10;;;1.97;;
1785;SDS011;890;48.158;11.540;2022-09-09T17:46:18;1.77;;;1.67;;
1785;SDS011;890;48.158;11.540;2022-09-09T17:48:46;3.20;;;1.80;;
1785;SDS011;890;48.158;11.540;2022-09-09T17:51:14;1.87;;;1.67;;
1785;SDS011;890;48.158;11.540;2022-09-09T17:53:44;1.83;;;1.73;;
1785;SDS011;890;48.158;11.540;2022-09-09T17:56:12;3.07;;;1.70;;
1785;SDS011;890;48.158;11.540;2022-09-09T17:58:39;2.27;;;1.90;;
1785;SDS011;890;48.158;11.540;2022-09-09T18:01:06;2.33;;;2.13;;
1785;SDS011;890;48.158;11.540;2022-09-09T18:03:37;2.67;;;1.77;;
1785;SDS011;890;48.158;11.540;2022-09-09T18:06:05;2.20;;;1.80;;